KDYL

Details ICAO KDYL
Name Doylestown Airport
Region United States
Timezone America/New_York (UTC-5.0)
Plans Departing 12
Arriving 2
Stats Elevation 394 ft / 120 m (AMSL)
Location 40.333132° -75.122403°
Runways 1
Magnetic Variation 12.227° W
Sunrise 2017-12-12 12:15:37 UTC / 2017-12-12 07:15:37 Local
Sunset 2017-12-12 21:35:53 UTC / 2017-12-12 16:35:53 Local
Advertisement - Login to hide

Runways

ID Width Length Bearing (true) Bearing (mag) Surface Threshold Offset Overrun Length
05 57 ft / 17 m 2,696 ft / 822 m 38.63° 50.86° Asphalt 0 ft / 0 m 0 ft / 0 m
23 57 ft / 17 m 2,696 ft / 822 m 218.63° 230.86° Asphalt 0 ft / 0 m 0 ft / 0 m

Map

Weather


0- 5 10 15 20 25 30 35+ Temperature / ° C

Clouds and Precipitation
Forecast for 2017-12-13 06:00 UTC. Updated 16 minutes ago

Ground ~20,000 ft ~40,000 ft Winds

METAR

KDYL 130254Z AUTO 30012G20KT 10SM CLR M03/M12 A2952 RMK AO2 SLP002 T10331122 58002

TAF

Not found

Frequencies

Recorded 118.87 MHz ASOS
Clearance 118.55 MHz CLNC DEL
Unicom 122.97 MHz CTAF/UNICOM
Approach 123.80 MHz PHILADELPHIA APP/DEP
Warning: Do not use this data for real-world aviation or navigation. No guarantee of current accuracy is given.